createdAt,value
2023-04-28T00:00:32.674Z,112.5
2023-04-28T00:02:13.055Z,112.5
2023-04-28T00:03:53.575Z,135
2023-04-28T00:05:33.789Z,135
2023-04-28T00:07:14.053Z,112.5
2023-04-28T00:08:54.387Z,135
2023-04-28T00:10:34.825Z,112.5
2023-04-28T00:12:15.264Z,135
2023-04-28T00:13:55.680Z,180
2023-04-28T00:15:36.139Z,112.5
2023-04-28T00:17:16.608Z,112.5
2023-04-28T00:18:57.006Z,135
2023-04-28T00:20:37.361Z,112.5
2023-04-28T00:22:17.733Z,135
2023-04-28T00:23:58.140Z,157.5
2023-04-28T00:25:38.547Z,135
2023-04-28T00:27:18.950Z,112.5
2023-04-28T00:28:59.301Z,157.5
2023-04-28T00:30:39.662Z,157.5
2023-04-28T00:32:20.058Z,157.5
2023-04-28T00:34:00.475Z,180
2023-04-28T00:35:40.821Z,157.5
2023-04-28T00:37:21.194Z,112.5
2023-04-28T00:39:01.522Z,157.5
2023-04-28T00:40:41.918Z,135
2023-04-28T00:42:22.254Z,135
2023-04-28T00:44:02.601Z,135
2023-04-28T00:45:42.970Z,135
2023-04-28T00:47:23.370Z,135
2023-04-28T00:49:03.656Z,135
2023-04-28T00:50:44.116Z,135
2023-04-28T00:52:24.470Z,112.5
2023-04-28T00:54:04.868Z,135
2023-04-28T00:55:45.303Z,135
2023-04-28T00:57:25.674Z,135
2023-04-28T00:59:06.038Z,180
2023-04-28T01:00:46.437Z,157.5
2023-04-28T01:02:26.987Z,157.5
2023-04-28T01:04:07.784Z,157.5
2023-04-28T01:05:47.632Z,157.5
2023-04-28T01:07:28.018Z,135
2023-04-28T01:09:08.428Z,90
2023-04-28T01:10:48.826Z,157.5
2023-04-28T01:12:29.249Z,112.5
2023-04-28T01:14:09.674Z,180
2023-04-28T01:15:50.073Z,112.5
2023-04-28T01:17:30.585Z,112.5
2023-04-28T01:19:11.014Z,180
2023-04-28T01:20:51.385Z,157.5
2023-04-28T01:22:31.760Z,157.5
2023-04-28T01:24:12.188Z,157.5
2023-04-28T01:25:52.625Z,135
2023-04-28T01:27:33.026Z,135
2023-04-28T01:29:13.424Z,157.5
2023-04-28T01:30:53.787Z,135
2023-04-28T01:32:34.313Z,135
2023-04-28T01:34:14.784Z,180
2023-04-28T01:35:55.022Z,157.5
2023-04-28T01:37:35.366Z,135
2023-04-28T01:39:15.800Z,135
2023-04-28T01:40:56.123Z,135
2023-04-28T01:42:36.430Z,135
2023-04-28T01:44:17.105Z,112.5
2023-04-28T01:45:57.128Z,157.5
2023-04-28T01:47:37.512Z,157.5
2023-04-28T01:49:17.878Z,112.5
2023-04-28T01:50:58.233Z,180
2023-04-28T01:52:38.639Z,157.5
2023-04-28T01:54:19.184Z,135
2023-04-28T01:55:59.395Z,157.5
2023-04-28T01:57:39.847Z,112.5
2023-04-28T01:59:20.240Z,112.5
2023-04-28T02:01:00.666Z,180
2023-04-28T02:02:41.117Z,112.5
2023-04-28T02:04:21.595Z,135
2023-04-28T02:06:01.941Z,157.5
2023-04-28T02:07:42.280Z,135
2023-04-28T02:09:22.585Z,112.5
2023-04-28T02:11:03.058Z,135
2023-04-28T02:12:43.536Z,157.5
2023-04-28T02:14:23.832Z,157.5
2023-04-28T02:16:04.188Z,135
2023-04-28T02:17:44.560Z,157.5
2023-04-28T02:19:24.773Z,180
2023-04-28T02:21:05.168Z,135
2023-04-28T02:22:45.540Z,112.5
2023-04-28T02:24:25.892Z,157.5
2023-04-28T02:26:06.249Z,112.5
2023-04-28T02:27:46.596Z,135
2023-04-28T02:29:27.021Z,157.5
2023-04-28T02:31:07.585Z,157.5
2023-04-28T02:32:47.887Z,135
2023-04-28T02:34:28.290Z,180
2023-04-28T02:36:08.743Z,157.5
2023-04-28T02:37:49.110Z,135
2023-04-28T02:39:29.540Z,157.5
2023-04-28T02:41:09.943Z,157.5
2023-04-28T02:42:50.334Z,135
2023-04-28T02:44:30.717Z,112.5
2023-04-28T02:46:11.135Z,135
2023-04-28T02:47:51.556Z,135
2023-04-28T02:49:31.922Z,135
2023-04-28T02:51:12.276Z,202.5
2023-04-28T02:52:52.708Z,157.5
2023-04-28T02:54:33.193Z,135
2023-04-28T02:56:13.531Z,135
2023-04-28T02:57:53.863Z,157.5
2023-04-28T02:59:34.140Z,157.5
2023-04-28T03:01:14.523Z,112.5
2023-04-28T03:02:55.064Z,112.5
2023-04-28T03:04:35.132Z,112.5
2023-04-28T03:06:15.417Z,135
2023-04-28T03:07:55.802Z,135
2023-04-28T03:09:36.214Z,112.5
2023-04-28T03:11:16.662Z,135
2023-04-28T03:12:57.079Z,157.5
2023-04-28T03:14:37.451Z,135
2023-04-28T03:16:17.923Z,135
2023-04-28T03:17:58.369Z,157.5
2023-04-28T03:19:38.688Z,135
2023-04-28T03:21:19.112Z,157.5
2023-04-28T03:22:59.554Z,112.5
2023-04-28T03:24:39.897Z,135
2023-04-28T03:26:20.309Z,180
2023-04-28T03:28:00.736Z,112.5
2023-04-28T03:29:41.148Z,112.5
2023-04-28T03:31:21.558Z,112.5
2023-04-28T03:33:01.997Z,135
2023-04-28T03:34:42.396Z,112.5
2023-04-28T03:36:22.800Z,157.5
2023-04-28T03:38:03.187Z,135
2023-04-28T03:39:43.505Z,135
2023-04-28T03:41:23.861Z,157.5
2023-04-28T03:43:05.001Z,180
2023-04-28T03:44:44.629Z,157.5
2023-04-28T03:46:25.048Z,180
2023-04-28T03:48:05.503Z,157.5
2023-04-28T03:49:45.779Z,157.5
2023-04-28T03:51:26.131Z,135
2023-04-28T03:53:06.573Z,157.5
2023-04-28T03:54:46.894Z,157.5
2023-04-28T03:56:27.275Z,135
2023-04-28T03:58:07.736Z,135
2023-04-28T03:59:48.249Z,180
2023-04-28T04:01:28.634Z,135
2023-04-28T04:03:09.295Z,180
2023-04-28T04:04:49.790Z,157.5
2023-04-28T04:06:29.840Z,180
2023-04-28T04:08:10.219Z,135
2023-04-28T04:09:50.550Z,157.5
2023-04-28T04:11:30.943Z,135
2023-04-28T04:13:11.349Z,157.5
2023-04-28T04:14:51.827Z,112.5
2023-04-28T04:16:32.245Z,157.5
2023-04-28T04:18:12.541Z,135
2023-04-28T04:19:52.844Z,112.5
2023-04-28T04:21:33.138Z,112.5
2023-04-28T04:23:13.538Z,180
2023-04-28T04:24:53.974Z,180
2023-04-28T04:26:34.225Z,157.5
2023-04-28T04:28:14.607Z,180
2023-04-28T04:29:55.074Z,157.5
2023-04-28T04:31:35.461Z,157.5
2023-04-28T04:33:15.828Z,157.5
2023-04-28T04:34:56.268Z,135
2023-04-28T04:36:36.718Z,180
2023-04-28T04:38:17.134Z,157.5
2023-04-28T04:39:57.477Z,180
2023-04-28T04:41:37.860Z,157.5
2023-04-28T04:43:18.175Z,112.5
2023-04-28T04:44:58.507Z,157.5
2023-04-28T04:46:39.046Z,157.5
2023-04-28T04:48:19.353Z,157.5
2023-04-28T04:49:59.733Z,180
2023-04-28T04:51:40.216Z,180
2023-04-28T04:53:20.561Z,135
2023-04-28T04:55:00.917Z,135
2023-04-28T04:56:41.313Z,180
2023-04-28T04:58:21.758Z,180
2023-04-28T05:00:02.119Z,157.5
2023-04-28T05:01:42.505Z,135
2023-04-28T05:03:22.891Z,135
2023-04-28T05:05:12.789Z,135
2023-04-28T05:06:43.683Z,135
2023-04-28T05:08:24.062Z,180
2023-04-28T05:10:04.461Z,135
2023-04-28T05:11:44.970Z,157.5
2023-04-28T05:13:25.380Z,135
2023-04-28T05:15:05.818Z,157.5
2023-04-28T05:16:46.329Z,157.5
2023-04-28T05:18:26.702Z,157.5
2023-04-28T05:20:07.077Z,157.5
2023-04-28T05:21:47.586Z,157.5
2023-04-28T05:23:28.010Z,157.5
2023-04-28T05:25:08.453Z,180
2023-04-28T05:26:48.854Z,157.5
2023-04-28T05:28:29.270Z,112.5
2023-04-28T05:30:09.649Z,157.5
2023-04-28T05:31:50.070Z,157.5
2023-04-28T05:33:30.343Z,157.5
2023-04-28T05:35:10.752Z,135
2023-04-28T05:36:51.200Z,135
2023-04-28T05:38:31.539Z,135
2023-04-28T05:40:12.074Z,157.5
2023-04-28T05:41:52.404Z,157.5
2023-04-28T05:43:32.833Z,180
2023-04-28T05:45:13.282Z,180
2023-04-28T05:46:53.768Z,135
2023-04-28T05:48:34.061Z,180
2023-04-28T05:50:14.477Z,180
2023-04-28T05:51:54.942Z,135
2023-04-28T05:53:35.329Z,112.5
2023-04-28T05:55:15.783Z,157.5
2023-04-28T05:56:56.254Z,135
2023-04-28T05:58:36.641Z,135
2023-04-28T06:00:17.039Z,135
2023-04-28T06:01:57.441Z,180
2023-04-28T06:03:38.020Z,180
2023-04-28T06:05:18.365Z,135
2023-04-28T06:06:58.451Z,157.5
2023-04-28T06:08:38.732Z,157.5
2023-04-28T06:10:19.087Z,135
2023-04-28T06:11:59.538Z,135
2023-04-28T06:13:39.964Z,157.5
2023-04-28T06:15:20.485Z,135
2023-04-28T06:17:00.788Z,135
2023-04-28T06:18:41.251Z,135
2023-04-28T06:20:21.732Z,157.5
2023-04-28T06:22:02.148Z,112.5
2023-04-28T06:23:42.522Z,180
2023-04-28T06:25:22.939Z,112.5
2023-04-28T06:27:03.390Z,135
2023-04-28T06:28:43.796Z,112.5
2023-04-28T06:30:24.251Z,135
2023-04-28T06:32:04.625Z,135
2023-04-28T06:33:45.007Z,157.5
2023-04-28T06:35:25.440Z,135
2023-04-28T06:37:05.859Z,157.5
2023-04-28T06:38:46.234Z,135
2023-04-28T06:40:26.617Z,135
2023-04-28T06:42:06.922Z,157.5
2023-04-28T06:43:47.236Z,135
2023-04-28T06:45:27.543Z,135
2023-04-28T06:47:07.950Z,135
2023-04-28T06:48:48.215Z,135
2023-04-28T06:50:28.635Z,135
2023-04-28T06:52:09.019Z,135
2023-04-28T06:53:49.507Z,112.5
2023-04-28T06:55:29.914Z,135
2023-04-28T06:57:10.264Z,135
2023-04-28T06:58:50.656Z,135
2023-04-28T07:00:31.047Z,112.5
2023-04-28T07:02:11.450Z,157.5
2023-04-28T07:03:51.886Z,112.5
2023-04-28T07:05:32.259Z,157.5
2023-04-28T07:07:12.629Z,112.5
2023-04-28T07:08:53.078Z,112.5
2023-04-28T07:10:33.479Z,135
2023-04-28T07:12:13.874Z,112.5
2023-04-28T07:13:54.389Z,112.5
2023-04-28T07:15:34.705Z,180
2023-04-28T07:17:15.074Z,135
2023-04-28T07:18:55.536Z,157.5
2023-04-28T07:20:35.974Z,135
2023-04-28T07:22:16.271Z,112.5
2023-04-28T07:23:56.660Z,135
2023-04-28T07:25:36.980Z,135
2023-04-28T07:27:17.307Z,135
2023-04-28T07:28:57.584Z,157.5
2023-04-28T07:30:37.951Z,157.5
2023-04-28T07:32:18.401Z,135
2023-04-28T07:33:58.511Z,135
2023-04-28T07:35:38.812Z,135
2023-04-28T07:37:19.135Z,135
2023-04-28T07:38:59.416Z,135
2023-04-28T07:40:39.717Z,112.5
2023-04-28T07:42:20.033Z,135
2023-04-28T07:50:47.824Z,135
2023-04-28T07:52:28.228Z,157.5
2023-04-28T07:54:08.701Z,157.5
2023-04-28T07:55:49.068Z,180
2023-04-28T07:57:29.471Z,180
2023-04-28T07:59:09.765Z,112.5
2023-04-28T08:00:50.216Z,112.5
2023-04-28T08:02:30.824Z,112.5
2023-04-28T08:04:11.457Z,180
2023-04-28T08:05:51.562Z,135
2023-04-28T08:07:31.788Z,135
2023-04-28T08:09:12.219Z,157.5
2023-04-28T08:10:52.560Z,90
2023-04-28T08:12:32.901Z,135
2023-04-28T08:14:13.334Z,112.5
2023-04-28T08:15:53.748Z,112.5
2023-04-28T08:17:34.209Z,112.5
2023-04-28T08:19:14.617Z,112.5
2023-04-28T08:20:55.075Z,180
2023-04-28T08:22:35.500Z,180
2023-04-28T08:24:16.103Z,135
2023-04-28T08:25:56.403Z,112.5
2023-04-28T08:27:36.779Z,112.5
2023-04-28T08:29:17.164Z,135
2023-04-28T08:30:57.557Z,157.5
2023-04-28T08:32:38.025Z,112.5
2023-04-28T08:34:18.842Z,180
2023-04-28T08:35:58.901Z,112.5
2023-04-28T08:37:39.341Z,157.5
2023-04-28T08:39:19.724Z,112.5
2023-04-28T08:41:00.150Z,112.5
2023-04-28T08:42:40.591Z,112.5
2023-04-28T08:44:21.012Z,157.5
2023-04-28T08:46:01.404Z,112.5
2023-04-28T08:47:41.948Z,180
2023-04-28T08:49:22.298Z,135
2023-04-28T08:51:02.676Z,112.5
2023-04-28T08:52:43.081Z,112.5
2023-04-28T08:54:26.913Z,180
2023-04-28T08:56:03.865Z,157.5
2023-04-28T08:57:44.350Z,135
2023-04-28T08:59:24.740Z,135
2023-04-28T09:01:05.159Z,112.5
2023-04-28T09:02:45.680Z,112.5
2023-04-28T09:04:26.737Z,112.5
2023-04-28T09:06:06.378Z,135
2023-04-28T09:07:46.844Z,112.5
2023-04-28T09:09:27.245Z,112.5
2023-04-28T09:11:07.619Z,112.5
2023-04-28T09:12:48.086Z,135
2023-04-28T09:14:28.521Z,112.5
2023-04-28T09:16:08.926Z,135
2023-04-28T09:17:49.349Z,90
2023-04-28T09:19:29.671Z,135
2023-04-28T09:21:10.102Z,157.5
2023-04-28T09:22:50.587Z,112.5
2023-04-28T09:24:30.931Z,112.5
2023-04-28T09:26:11.374Z,112.5
2023-04-28T09:27:51.766Z,90
2023-04-28T09:29:32.290Z,135
2023-04-28T09:31:12.696Z,112.5
2023-04-28T09:32:53.194Z,112.5
2023-04-28T09:34:33.605Z,135
2023-04-28T09:36:14.029Z,135
2023-04-28T09:37:54.463Z,135
2023-04-28T09:39:34.846Z,112.5
2023-04-28T09:41:15.267Z,112.5
2023-04-28T09:42:55.622Z,112.5
2023-04-28T09:44:35.978Z,135
2023-04-28T09:46:16.578Z,112.5
2023-04-28T09:47:56.807Z,112.5
2023-04-28T09:49:37.156Z,180
2023-04-28T09:51:17.553Z,135
2023-04-28T09:52:57.942Z,157.5
2023-04-28T09:54:38.478Z,180
2023-04-28T09:56:18.870Z,112.5
2023-04-28T09:57:59.321Z,112.5
2023-04-28T09:59:39.741Z,112.5
2023-04-28T10:01:25.747Z,112.5
2023-04-28T10:03:06.252Z,112.5
2023-04-28T10:04:46.653Z,135
2023-04-28T10:06:26.765Z,112.5
2023-04-28T10:08:07.153Z,112.5
2023-04-28T10:09:47.606Z,112.5
2023-04-28T10:11:28.028Z,135
2023-04-28T10:13:08.463Z,112.5
2023-04-28T10:14:48.738Z,135
2023-04-28T10:16:29.229Z,112.5
2023-04-28T10:18:09.614Z,157.5
2023-04-28T10:19:50.037Z,112.5
2023-04-28T10:21:30.463Z,112.5
2023-04-28T10:23:10.846Z,112.5
2023-04-28T10:24:51.357Z,112.5
2023-04-28T10:26:31.783Z,90
2023-04-28T10:28:12.252Z,135
2023-04-28T10:29:52.685Z,90
2023-04-28T10:31:33.109Z,112.5
2023-04-28T10:33:13.749Z,180
2023-04-28T10:34:53.964Z,112.5
2023-04-28T10:36:36.464Z,112.5
2023-04-28T10:38:14.777Z,135
2023-04-28T10:39:55.195Z,90
2023-04-28T10:41:35.535Z,135
2023-04-28T10:43:15.970Z,112.5
2023-04-28T10:44:56.368Z,112.5
2023-04-28T10:46:36.783Z,180
2023-04-28T10:48:17.107Z,112.5
2023-04-28T10:49:57.726Z,157.5
2023-04-28T10:51:38.076Z,157.5
2023-04-28T10:53:18.451Z,135
2023-04-28T10:54:58.940Z,157.5
2023-04-28T10:56:41.858Z,157.5
2023-04-28T10:58:19.898Z,180
2023-04-28T11:00:00.334Z,135
2023-04-28T11:01:40.801Z,157.5
2023-04-28T11:03:21.349Z,112.5
2023-04-28T11:05:01.631Z,112.5
2023-04-28T11:06:41.949Z,112.5
2023-04-28T11:08:22.346Z,112.5
2023-04-28T11:10:02.708Z,112.5
2023-04-28T11:11:43.065Z,112.5
2023-04-28T11:13:23.482Z,180
2023-04-28T11:15:03.954Z,135
2023-04-28T11:16:44.547Z,180
2023-04-28T11:18:24.765Z,135
2023-04-28T11:20:05.199Z,112.5
2023-04-28T11:21:45.591Z,135
2023-04-28T11:23:26.039Z,112.5
2023-04-28T11:25:06.407Z,112.5
2023-04-28T11:26:46.814Z,135
2023-04-28T11:28:27.116Z,135
2023-04-28T11:30:07.643Z,112.5
2023-04-28T11:31:48.049Z,157.5
2023-04-28T11:33:28.433Z,112.5
2023-04-28T11:35:08.865Z,135
2023-04-28T11:36:49.284Z,157.5
2023-04-28T11:38:29.693Z,112.5
2023-04-28T11:40:10.184Z,157.5
2023-04-28T11:41:50.527Z,157.5
2023-04-28T11:43:43.641Z,157.5
2023-04-28T11:45:11.308Z,112.5
2023-04-28T11:46:51.790Z,180
2023-04-28T11:48:32.118Z,157.5
2023-04-28T11:50:12.466Z,135
2023-04-28T11:51:52.899Z,180
2023-04-28T11:53:33.343Z,135
2023-04-28T11:55:13.741Z,112.5
2023-04-28T11:56:54.186Z,157.5
2023-04-28T11:58:34.679Z,180
2023-04-28T12:00:15.243Z,112.5
2023-04-28T12:01:55.473Z,135
2023-04-28T12:03:36.029Z,135
2023-04-28T12:05:16.394Z,157.5
2023-04-28T12:06:56.768Z,157.5
2023-04-28T12:08:37.270Z,112.5
2023-04-28T12:10:17.767Z,135
2023-04-28T12:11:58.151Z,157.5
2023-04-28T12:13:38.605Z,135
2023-04-28T12:15:20.750Z,135
2023-04-28T12:16:59.452Z,157.5
2023-04-28T12:18:39.786Z,135
2023-04-28T12:20:20.129Z,157.5
2023-04-28T12:22:00.513Z,157.5
2023-04-28T12:23:40.957Z,157.5
2023-04-28T12:25:21.259Z,135
2023-04-28T12:27:01.704Z,180
2023-04-28T12:28:42.116Z,157.5
2023-04-28T12:30:22.504Z,135
2023-04-28T12:32:02.924Z,157.5
2023-04-28T12:33:43.290Z,135
2023-04-28T12:35:23.788Z,112.5
2023-04-28T12:37:04.178Z,112.5
2023-04-28T12:38:44.567Z,112.5
2023-04-28T12:40:24.890Z,157.5
2023-04-28T12:42:05.353Z,157.5
2023-04-28T12:43:45.792Z,157.5
2023-04-28T12:45:26.257Z,157.5
2023-04-28T12:47:06.682Z,135
2023-04-28T12:48:47.119Z,112.5
2023-04-28T12:50:27.516Z,157.5
2023-04-28T12:52:07.943Z,135
2023-04-28T12:53:48.199Z,157.5
2023-04-28T12:55:28.655Z,180
2023-04-28T12:57:09.117Z,180
2023-04-28T12:58:49.564Z,135
2023-04-28T13:00:29.928Z,135
2023-04-28T13:02:10.343Z,112.5
2023-04-28T13:03:50.810Z,112.5
2023-04-28T13:05:31.231Z,112.5
2023-04-28T13:07:11.680Z,157.5
2023-04-28T13:08:52.058Z,135
2023-04-28T13:10:32.458Z,112.5
2023-04-28T13:12:12.997Z,112.5
2023-04-28T13:13:53.392Z,112.5
2023-04-28T13:15:33.760Z,135
2023-04-28T13:17:14.168Z,112.5
2023-04-28T13:18:54.563Z,135
2023-04-28T13:20:35.006Z,135
2023-04-28T13:22:15.331Z,112.5
2023-04-28T13:23:55.646Z,112.5
2023-04-28T13:25:36.055Z,135
2023-04-28T13:27:16.417Z,112.5
2023-04-28T13:28:56.839Z,135
2023-04-28T13:30:37.332Z,135
2023-04-28T13:32:17.701Z,135
2023-04-28T13:33:58.039Z,135
2023-04-28T13:35:38.510Z,112.5
2023-04-28T13:37:18.872Z,112.5
2023-04-28T13:39:01.649Z,135
2023-04-28T13:40:39.882Z,112.5
2023-04-28T13:42:20.305Z,112.5
2023-04-28T13:44:00.694Z,112.5
2023-04-28T13:45:41.178Z,135
2023-04-28T13:47:21.620Z,112.5
2023-04-28T13:49:01.969Z,135
2023-04-28T13:50:42.492Z,157.5
2023-04-28T13:52:22.805Z,180
2023-04-28T13:54:03.058Z,157.5
2023-04-28T13:55:43.384Z,157.5
2023-04-28T13:57:23.731Z,180
2023-04-28T13:59:04.132Z,157.5
2023-04-28T14:00:44.539Z,157.5
2023-04-28T14:02:25.128Z,112.5
2023-04-28T14:04:05.729Z,157.5
2023-04-28T14:05:49.765Z,112.5
2023-04-28T14:07:26.262Z,157.5
2023-04-28T14:09:06.705Z,112.5
2023-04-28T14:10:47.125Z,135
2023-04-28T14:12:27.583Z,135
2023-04-28T14:14:07.972Z,135
2023-04-28T14:15:59.130Z,112.5
2023-04-28T14:17:28.855Z,112.5
2023-04-28T14:19:09.260Z,135
2023-04-28T14:20:49.742Z,180
2023-04-28T14:22:30.130Z,112.5
2023-04-28T14:24:13.612Z,112.5
2023-04-28T14:25:51.070Z,112.5
2023-04-28T14:27:31.504Z,112.5
2023-04-28T14:29:11.935Z,135
2023-04-28T14:30:52.447Z,157.5
2023-04-28T14:32:32.937Z,112.5
2023-04-28T14:34:13.253Z,112.5
2023-04-28T14:35:53.667Z,135
2023-04-28T14:37:34.020Z,112.5
2023-04-28T14:39:14.364Z,157.5
2023-04-28T14:40:54.728Z,157.5
2023-04-28T14:42:35.183Z,180
2023-04-28T14:44:15.528Z,135
2023-04-28T14:45:55.976Z,112.5
2023-04-28T14:47:36.404Z,112.5
2023-04-28T14:49:22.975Z,90
2023-04-28T14:51:03.414Z,112.5
2023-04-28T14:52:43.796Z,112.5
2023-04-28T14:54:24.150Z,112.5
2023-04-28T14:56:17.291Z,135
2023-04-28T14:57:44.781Z,112.5
2023-04-28T14:59:25.187Z,112.5
2023-04-28T15:01:05.610Z,157.5
2023-04-28T15:02:46.074Z,135
2023-04-28T15:04:26.460Z,157.5
2023-04-28T15:06:06.674Z,135
2023-04-28T15:07:47.051Z,157.5
2023-04-28T15:09:27.387Z,157.5
2023-04-28T15:11:07.765Z,180
2023-04-28T15:12:48.137Z,180
2023-04-28T15:14:28.610Z,157.5
2023-04-28T15:16:09.014Z,112.5
2023-04-28T15:17:49.362Z,112.5
2023-04-28T15:19:29.710Z,135
2023-04-28T15:21:10.186Z,135
2023-04-28T15:22:50.604Z,135
2023-04-28T15:24:31.063Z,157.5
2023-04-28T15:26:11.431Z,157.5
2023-04-28T15:27:51.829Z,135
2023-04-28T15:29:32.239Z,135
2023-04-28T15:31:15.678Z,135
2023-04-28T15:32:53.167Z,112.5
2023-04-28T15:34:33.509Z,112.5
2023-04-28T15:36:14.033Z,112.5
2023-04-28T15:37:54.376Z,157.5
2023-04-28T15:39:34.768Z,112.5
2023-04-28T15:41:15.165Z,112.5
2023-04-28T15:42:55.619Z,157.5
2023-04-28T15:44:36.088Z,112.5
2023-04-28T15:46:16.600Z,112.5
2023-04-28T15:47:56.953Z,135
2023-04-28T15:49:37.387Z,112.5
2023-04-28T15:51:17.767Z,112.5
2023-04-28T15:53:05.288Z,180
2023-04-28T15:54:38.654Z,135
2023-04-28T15:56:19.746Z,112.5
2023-04-28T15:57:59.514Z,157.5
2023-04-28T15:59:39.952Z,135
2023-04-28T16:01:20.412Z,112.5
2023-04-28T16:03:00.937Z,157.5
2023-04-28T16:04:41.308Z,112.5
2023-04-28T16:06:21.603Z,112.5
2023-04-28T16:08:02.049Z,157.5
2023-04-28T16:09:42.474Z,157.5
2023-04-28T16:11:22.894Z,180
2023-04-28T16:13:03.251Z,112.5
2023-04-28T16:14:43.616Z,135
2023-04-28T16:16:24.126Z,112.5
2023-04-28T16:18:04.368Z,157.5
2023-04-28T16:19:44.744Z,112.5
2023-04-28T16:21:25.184Z,135
2023-04-28T16:23:05.624Z,157.5
2023-04-28T16:24:45.968Z,112.5
2023-04-28T16:26:26.443Z,135
2023-04-28T16:28:06.930Z,135
2023-04-28T16:29:47.333Z,157.5
2023-04-28T16:31:27.796Z,135
2023-04-28T16:33:08.352Z,112.5
2023-04-28T16:34:48.890Z,112.5
2023-04-28T16:36:29.158Z,112.5
2023-04-28T16:38:09.555Z,135
2023-04-28T16:39:50.116Z,112.5
2023-04-28T16:41:30.307Z,135
2023-04-28T16:43:10.801Z,135
2023-04-28T16:44:52.770Z,112.5
2023-04-28T16:46:34.708Z,112.5
2023-04-28T16:48:12.124Z,112.5
2023-04-28T16:49:53.001Z,112.5
2023-04-28T16:51:33.101Z,135
2023-04-28T16:53:13.535Z,135
2023-04-28T16:54:53.902Z,90
2023-04-28T16:56:34.317Z,90
2023-04-28T16:58:14.715Z,112.5
2023-04-28T16:59:55.129Z,112.5
2023-04-28T17:01:35.593Z,135
2023-04-28T17:03:16.453Z,135
2023-04-28T17:04:56.513Z,135
2023-04-28T17:06:36.976Z,112.5
2023-04-28T17:08:17.437Z,112.5
2023-04-28T17:09:57.803Z,112.5
2023-04-28T17:11:38.273Z,112.5
2023-04-28T17:13:21.737Z,112.5
2023-04-28T17:14:59.035Z,90
2023-04-28T17:16:39.428Z,112.5
2023-04-28T17:18:19.865Z,135
2023-04-28T17:20:00.269Z,135
2023-04-28T17:21:40.793Z,202.5
2023-04-28T17:23:21.192Z,90
2023-04-28T17:25:01.614Z,90
2023-04-28T17:26:42.018Z,90
2023-04-28T17:28:22.490Z,90
2023-04-28T17:30:02.866Z,90
2023-04-28T17:31:43.277Z,90
2023-04-28T17:33:23.656Z,90
2023-04-28T17:35:03.993Z,135
2023-04-28T17:36:44.427Z,135
2023-04-28T17:38:24.793Z,90
2023-04-28T17:40:05.137Z,135
2023-04-28T17:41:45.561Z,135
2023-04-28T17:43:25.941Z,112.5
2023-04-28T17:45:06.346Z,180
2023-04-28T17:46:46.733Z,112.5
2023-04-28T17:48:27.133Z,157.5
2023-04-28T17:50:07.520Z,112.5
2023-04-28T17:51:47.985Z,157.5
2023-04-28T17:53:28.314Z,112.5
2023-04-28T17:55:08.680Z,157.5
2023-04-28T17:56:56.259Z,22.5
2023-04-28T17:58:29.624Z,180
2023-04-28T18:00:10.125Z,157.5
2023-04-28T18:01:50.612Z,202.5
2023-04-28T18:03:31.092Z,22.5
2023-04-28T18:05:11.728Z,22.5
2023-04-28T18:06:51.877Z,90
2023-04-28T18:08:32.228Z,202.5
2023-04-28T18:10:12.653Z,67.5
2023-04-28T18:11:53.066Z,112.5
2023-04-28T18:13:33.523Z,112.5
2023-04-28T18:15:13.870Z,112.5
2023-04-28T18:16:54.291Z,135
2023-04-28T18:18:35.614Z,112.5
2023-04-28T18:20:15.147Z,135
2023-04-28T18:21:55.498Z,112.5
2023-04-28T18:23:35.919Z,90
2023-04-28T18:25:16.249Z,90
2023-04-28T18:26:56.780Z,112.5
2023-04-28T18:28:37.137Z,112.5
2023-04-28T18:30:17.546Z,112.5
2023-04-28T18:31:57.964Z,112.5
2023-04-28T18:33:38.499Z,112.5
2023-04-28T18:35:18.786Z,112.5
2023-04-28T18:36:59.253Z,180
2023-04-28T18:38:42.781Z,180
2023-04-28T18:40:20.077Z,157.5
2023-04-28T18:42:03.480Z,157.5
2023-04-28T18:43:40.920Z,112.5
2023-04-28T18:45:21.290Z,157.5
2023-04-28T18:47:01.712Z,112.5
2023-04-28T18:48:42.094Z,112.5
2023-04-28T18:50:22.467Z,112.5
2023-04-28T18:52:02.878Z,67.5
2023-04-28T18:53:43.309Z,112.5
2023-04-28T18:55:23.720Z,112.5
2023-04-28T18:57:04.122Z,157.5
2023-04-28T18:58:44.575Z,112.5
2023-04-28T19:00:24.914Z,112.5
2023-04-28T19:02:05.288Z,90
2023-04-28T19:03:45.936Z,112.5
2023-04-28T19:05:26.179Z,112.5
2023-04-28T19:07:06.571Z,112.5
2023-04-28T19:08:47.031Z,270
2023-04-28T19:10:27.441Z,292.5
2023-04-28T19:12:07.864Z,315
2023-04-28T19:13:51.316Z,315
2023-04-28T19:15:28.579Z,247.5
2023-04-28T19:17:08.953Z,135
2023-04-28T19:18:49.218Z,90
2023-04-28T19:20:29.678Z,45
2023-04-28T19:22:10.069Z,45
2023-04-28T19:23:50.519Z,90
2023-04-28T19:25:30.982Z,45
2023-04-28T19:27:18.440Z,67.5
2023-04-28T19:28:51.816Z,180
2023-04-28T19:30:35.237Z,135
2023-04-28T19:32:12.574Z,45
2023-04-28T19:33:52.950Z,135
2023-04-28T19:35:33.379Z,135
2023-04-28T19:37:13.736Z,112.5
2023-04-28T19:38:57.206Z,22.5
2023-04-28T19:40:34.512Z,315
2023-04-28T19:42:14.908Z,45
2023-04-28T19:44:02.364Z,135
2023-04-28T19:45:35.692Z,270
2023-04-28T19:47:16.131Z,292.5
2023-04-28T19:48:59.607Z,247.5
2023-04-28T19:50:36.968Z,45
2023-04-28T19:52:17.403Z,112.5
2023-04-28T19:53:57.799Z,315
2023-04-28T19:55:38.120Z,247.5
2023-04-28T19:57:18.591Z,292.5
2023-04-28T19:58:59.028Z,157.5
2023-04-28T20:00:39.536Z,180
2023-04-28T20:02:19.959Z,112.5
2023-04-28T20:04:00.684Z,135
2023-04-28T20:05:40.829Z,112.5
2023-04-28T20:07:21.218Z,292.5
2023-04-28T20:09:01.582Z,292.5
2023-04-28T20:10:41.977Z,292.5
2023-04-28T20:12:22.461Z,225
2023-04-28T20:14:02.802Z,292.5
2023-04-28T20:15:43.260Z,270
2023-04-28T20:17:26.698Z,247.5
2023-04-28T20:19:04.075Z,315
2023-04-28T20:20:44.533Z,292.5
2023-04-28T20:22:24.950Z,315
2023-04-28T20:24:05.234Z,315
2023-04-28T20:25:45.569Z,292.5
2023-04-28T20:27:25.945Z,292.5
2023-04-28T20:29:08.287Z,292.5
2023-04-28T20:30:46.743Z,270
2023-04-28T20:32:27.152Z,247.5
2023-04-28T20:34:07.594Z,292.5
2023-04-28T20:35:48.034Z,270
2023-04-28T20:37:28.396Z,292.5
2023-04-28T20:39:08.839Z,270
2023-04-28T20:40:49.284Z,315
2023-04-28T20:42:29.622Z,270
2023-04-28T20:44:10.120Z,292.5
2023-04-28T20:45:50.617Z,315
2023-04-28T20:47:30.983Z,292.5
2023-04-28T20:49:11.351Z,225
2023-04-28T20:50:51.830Z,315
2023-04-28T20:52:32.254Z,292.5
2023-04-28T20:54:12.645Z,292.5
2023-04-28T20:55:53.109Z,315
2023-04-28T20:57:33.567Z,292.5
2023-04-28T20:59:13.943Z,270
2023-04-28T21:00:54.407Z,292.5
2023-04-28T21:02:34.775Z,247.5
2023-04-28T21:04:15.201Z,270
2023-04-28T21:05:55.482Z,292.5
2023-04-28T21:07:35.915Z,270
2023-04-28T21:09:16.328Z,292.5
2023-04-28T21:10:56.739Z,292.5
2023-04-28T21:12:37.147Z,225
2023-04-28T21:14:17.585Z,202.5
2023-04-28T21:15:58.149Z,270
2023-04-28T21:17:38.507Z,247.5
2023-04-28T21:19:18.864Z,270
2023-04-28T21:20:59.323Z,270
2023-04-28T21:22:39.765Z,292.5
2023-04-28T21:24:20.202Z,270
2023-04-28T21:26:00.634Z,157.5
2023-04-28T21:27:41.051Z,270
2023-04-28T21:29:21.397Z,315
2023-04-28T21:31:01.813Z,315
2023-04-28T21:32:42.288Z,292.5
2023-04-28T21:34:22.543Z,180
2023-04-28T21:36:02.903Z,247.5
2023-04-28T21:37:43.236Z,270
2023-04-28T21:39:23.620Z,180
2023-04-28T21:41:04.026Z,270
2023-04-28T21:42:44.413Z,202.5
2023-04-28T21:44:24.780Z,292.5
2023-04-28T21:46:05.261Z,292.5
2023-04-28T21:47:45.671Z,247.5
2023-04-28T21:49:26.103Z,292.5
2023-04-28T21:51:06.419Z,292.5
2023-04-28T21:52:46.801Z,292.5
2023-04-28T21:54:27.191Z,292.5
2023-04-28T21:56:07.539Z,157.5
2023-04-28T21:57:48.002Z,270
2023-04-28T21:59:28.346Z,292.5
2023-04-28T22:01:08.857Z,270
2023-04-28T22:02:49.283Z,270
2023-04-28T22:04:29.708Z,247.5
2023-04-28T22:06:10.085Z,270
2023-04-28T22:07:50.525Z,292.5
2023-04-28T22:09:30.897Z,270
2023-04-28T22:11:11.329Z,225
2023-04-28T22:12:51.706Z,270
2023-04-28T22:16:12.542Z,247.5
2023-04-28T22:17:52.930Z,292.5
2023-04-28T22:19:33.406Z,315
2023-04-28T22:21:13.876Z,270
2023-04-28T22:22:54.248Z,292.5